Time;durP1;ratioP1;P1;durP2;ratioP2;P2;SDS_P1;SDS_P2;PMS_P1;PMS_P2;Temp;Humidity;BMP_temperature;BMP_pressure;BME280_temperature;BME280_humidity;BME280_pressure;Samples;Min_cycle;Max_cycle;Signal;HPM_P1;HPM_P2
2022/06/18 00:00:12;;;;;;;1.08;0.90;;;14.10;1.40;;;15.38;100.00;96098.30;646044;216;31541;-75
2022/06/18 00:02:50;;;;;;;1.23;1.10;;;14.30;1.40;;;15.54;100.00;96095.11;647860;212;32070;-75
2022/06/18 00:05:31;;;;;;;1.60;1.35;;;14.50;1.40;;;15.54;100.00;96086.93;648782;216;31767;-74
2022/06/18 00:08:18;;;;;;;1.60;1.20;;;14.60;1.40;;;15.57;100.00;96087.66;646899;212;31533;-74
2022/06/18 00:13:39;;;;;;;2.10;1.40;;;14.60;1.40;;;15.63;100.00;96088.06;647716;216;31470;-74
2022/06/18 00:13:45;;;;;;;1.30;1.20;;;14.60;1.40;;;15.66;100.00;96081.73;646749;216;31527;-75
2022/06/18 00:16:29;;;;;;;2.47;1.50;;;14.70;1.40;;;15.72;100.00;96082.97;620174;222;32016;-74
2022/06/18 00:19:08;;;;;;;1.75;1.27;;;14.80;1.40;;;15.74;100.00;96087.98;644401;216;31518;-74
2022/06/18 00:21:50;;;;;;;2.03;1.40;;;14.70;1.40;;;15.70;100.00;96086.48;650292;216;31586;-74
2022/06/18 00:24:31;;;;;;;1.90;1.40;;;14.60;1.40;;;15.66;100.00;96081.03;644150;216;31562;-74
2022/06/18 00:27:16;;;;;;;2.50;1.80;;;14.50;1.40;;;15.55;100.00;96080.32;644814;212;31810;-74
2022/06/18 00:29:57;;;;;;;1.40;0.90;;;14.30;1.40;;;15.47;100.00;96078.78;647640;216;42754;-74
2022/06/18 00:32:38;;;;;;;1.48;1.20;;;14.20;1.40;;;15.32;100.00;96081.88;647024;216;42426;-75
2022/06/18 00:35:51;;;;;;;1.30;1.00;;;14.10;1.40;;;15.38;100.00;96076.70;648494;216;31545;-74
2022/06/18 00:38:33;;;;;;;2.00;1.40;;;14.30;1.40;;;15.33;100.00;96078.34;650214;216;31647;-74
2022/06/18 00:41:19;;;;;;;1.80;1.00;;;14.30;1.40;;;15.37;100.00;96078.67;646107;216;31549;-75
2022/06/18 00:44:05;;;;;;;0.95;0.95;;;14.20;1.40;;;15.38;100.00;96073.13;648799;212;32392;-74
2022/06/18 00:46:54;;;;;;;0.95;0.70;;;14.30;1.40;;;15.35;100.00;96073.31;621635;226;31883;-73
2022/06/18 00:49:38;;;;;;;1.30;0.90;;;14.20;1.40;;;15.27;100.00;96075.52;646104;216;31610;-73
2022/06/18 00:52:40;;;;;;;1.30;1.20;;;14.20;1.40;;;15.42;100.00;96076.50;619762;226;31861;-74
2022/06/18 00:55:24;;;;;;;1.20;0.80;;;14.30;1.40;;;15.42;100.00;96077.69;619014;226;32130;-73
2022/06/18 00:58:08;;;;;;;1.10;1.00;;;14.20;1.40;;;15.27;100.00;96076.94;648385;216;31845;-73
2022/06/18 01:00:50;;;;;;;1.23;0.98;;;13.90;1.40;;;15.09;100.00;96078.81;645858;216;31787;-73
2022/06/18 01:03:34;;;;;;;1.45;1.35;;;13.60;1.40;;;14.90;100.00;96082.99;644591;216;31555;-73
2022/06/18 01:06:19;;;;;;;1.85;0.80;;;13.40;1.40;;;14.89;100.00;96081.02;648883;216;31502;-73
2022/06/18 01:09:06;;;;;;;1.30;1.20;;;13.40;1.40;;;14.71;100.00;96079.96;644542;212;31540;-74
2022/06/18 01:11:47;;;;;;;4.30;1.12;;;13.40;1.40;;;14.73;100.00;96081.81;646771;216;31546;-74
2022/06/18 01:14:32;;;;;;;1.37;1.20;;;13.30;1.40;;;14.49;100.00;96079.74;647721;216;31467;-74
2022/06/18 01:17:15;;;;;;;1.30;1.10;;;13.10;1.40;;;14.30;100.00;96079.09;646259;216;31600;-74
2022/06/18 01:20:04;;;;;;;3.33;1.20;;;13.00;1.40;;;14.29;100.00;96079.30;644258;216;31669;-75
2022/06/18 01:22:52;;;;;;;1.12;1.02;;;12.90;1.40;;;14.37;100.00;96076.81;648179;216;31534;-73
2022/06/18 01:25:32;;;;;;;1.00;0.90;;;13.20;1.40;;;14.63;100.00;96077.31;646879;216;31977;-73
2022/06/18 01:28:17;;;;;;;1.70;1.10;;;13.80;1.40;;;14.68;100.00;96074.22;645376;216;31579;-74
2022/06/18 01:30:58;;;;;;;1.60;1.17;;;13.60;1.40;;;14.62;100.00;96073.41;644805;216;31553;-73
2022/06/18 01:35:54;;;;;;;2.17;1.77;;;13.50;1.40;;;14.57;100.00;96078.34;644322;212;31559;-74
2022/06/18 01:38:35;;;;;;;1.58;1.48;;;13.40;1.40;;;14.60;100.00;96075.64;648271;216;31543;-74
2022/06/18 01:44:36;;;;;;;1.70;1.58;;;13.70;1.40;;;14.78;100.00;96068.28;646164;216;31602;-73
2022/06/18 01:47:25;;;;;;;1.77;1.48;;;13.80;1.40;;;14.86;100.00;96066.92;647793;216;31531;-74
2022/06/18 01:50:09;;;;;;;1.90;1.70;;;13.80;1.40;;;14.76;100.00;96061.52;644548;212;31572;-74
2022/06/18 01:52:55;;;;;;;2.12;1.08;;;13.70;1.40;;;14.79;100.00;96056.59;642825;216;31731;-74
2022/06/18 01:55:38;;;;;;;1.30;1.20;;;13.90;1.40;;;14.90;100.00;96054.88;649278;212;31575;-76
2022/06/18 01:58:36;;;;;;;1.73;1.25;;;14.00;1.40;;;14.99;100.00;96048.59;650976;216;31519;-73
2022/06/18 02:01:18;;;;;;;1.35;1.25;;;14.00;1.40;;;15.02;100.00;96045.19;618061;226;32307;-74
2022/06/18 02:04:00;;;;;;;2.23;1.03;;;14.00;1.40;;;15.00;100.00;96045.25;648283;216;31596;-74
2022/06/18 02:06:42;;;;;;;1.48;1.10;;;13.90;1.40;;;14.96;100.00;96047.94;644052;212;31548;-74
2022/06/18 02:09:45;;;;;;;1.15;1.05;;;13.90;1.40;;;14.86;100.00;96045.74;647626;216;31521;-73
2022/06/18 02:12:27;;;;;;;2.10;1.67;;;13.80;1.40;;;14.81;100.00;96041.69;647976;216;31585;-72
2022/06/18 02:15:12;;;;;;;1.42;1.08;;;13.70;1.40;;;14.64;100.00;96040.27;648682;216;31747;-72
2022/06/18 02:17:53;;;;;;;2.30;1.20;;;13.40;1.40;;;14.61;100.00;96041.94;647202;216;31523;-72
2022/06/18 02:20:36;;;;;;;1.58;1.48;;;13.40;1.40;;;14.52;100.00;96037.17;648497;216;31511;-73
2022/06/18 02:23:17;;;;;;;1.23;1.10;;;13.30;1.40;;;14.38;100.00;96033.41;646076;216;31677;-72
2022/06/18 02:25:59;;;;;;;1.45;1.00;;;13.20;1.40;;;14.42;100.00;96028.94;647040;216;31862;-74
2022/06/18 02:28:41;;;;;;;2.33;1.15;;;13.30;1.40;;;14.42;100.00;96030.58;618737;226;32106;-74
2022/06/18 02:31:26;;;;;;;1.12;0.95;;;13.20;1.40;;;14.40;100.00;96035.92;646126;212;31610;-74
2022/06/18 02:35:51;;;;;;;1.40;1.30;;;13.30;1.40;;;14.31;100.00;96030.09;646611;216;31589;-73
2022/06/18 02:38:35;;;;;;;1.27;1.17;;;13.10;1.40;;;14.25;100.00;96027.03;644802;216;31488;-73
2022/06/18 02:41:17;;;;;;;1.40;1.30;;;13.10;1.40;;;14.29;100.00;96027.56;617683;225;42486;-73
2022/06/18 02:43:59;;;;;;;1.40;1.30;;;13.20;1.40;;;14.32;100.00;96028.93;649159;216;42221;-73
2022/06/18 02:46:43;;;;;;;1.42;1.33;;;13.20;1.40;;;14.27;100.00;96029.00;647252;216;42707;-74
2022/06/18 02:49:24;;;;;;;1.30;1.20;;;13.10;1.40;;;14.12;100.00;96026.08;645961;216;37433;-73
2022/06/18 02:52:06;;;;;;;1.17;0.93;;;12.90;1.40;;;14.07;100.00;96029.09;644569;216;31714;-73
2022/06/18 02:54:51;;;;;;;1.30;1.08;;;12.90;1.40;;;14.12;100.00;96026.45;645865;212;42724;-73
2022/06/18 02:57:33;;;;;;;1.58;1.10;;;12.90;1.40;;;14.15;100.00;96024.34;646761;216;38617;-74
2022/06/18 03:00:15;;;;;;;1.20;1.10;;;13.00;1.40;;;14.13;100.00;96027.33;649156;216;32069;-74
2022/06/18 03:02:56;;;;;;;1.40;1.30;;;12.90;1.40;;;14.01;100.00;96023.97;647269;216;31568;-74
2022/06/18 03:05:38;;;;;;;1.20;1.00;;;12.70;1.40;;;13.92;100.00;96023.34;647806;216;42153;-74
2022/06/18 03:08:20;;;;;;;2.05;1.20;;;12.60;1.40;;;13.94;100.00;96025.39;645103;216;42734;-74
2022/06/18 03:13:49;;;;;;;2.03;1.37;;;12.60;1.40;;;13.72;100.00;96026.83;648395;216;31558;-74
2022/06/18 03:16:30;;;;;;;1.95;1.50;;;12.50;1.40;;;13.72;100.00;96023.67;645784;212;40634;-74
2022/06/18 03:19:37;;;;;;;1.20;0.80;;;12.60;1.40;;;13.81;100.00;96018.36;646354;212;32152;-74
2022/06/18 03:22:18;;;;;;;1.30;1.02;;;12.70;1.40;;;13.97;100.00;96020.97;645873;212;42451;-74
2022/06/18 03:25:00;;;;;;;1.60;1.50;;;13.00;1.40;;;14.13;100.00;96017.30;647332;216;42768;-74
2022/06/18 03:27:41;;;;;;;1.30;1.00;;;13.20;1.40;;;14.20;100.00;96013.84;619374;226;32241;-74
2022/06/18 03:30:23;;;;;;;1.30;1.20;;;13.20;1.40;;;14.29;100.00;96015.08;648251;212;31560;-74
2022/06/18 03:35:51;;;;;;;1.58;1.37;;;13.30;1.40;;;14.10;100.00;96022.20;649153;216;31656;-74
2022/06/18 03:38:32;;;;;;;1.75;1.40;;;13.10;1.40;;;13.96;100.00;96018.55;620207;226;37026;-74
2022/06/18 03:41:14;;;;;;;1.73;1.50;;;12.90;1.40;;;13.97;100.00;96024.52;645603;216;31943;-75
2022/06/18 03:43:59;;;;;;;1.10;0.90;;;12.90;1.40;;;14.01;100.00;96017.31;648048;216;42145;-74
2022/06/18 03:46:42;;;;;;;1.60;1.30;;;13.10;1.40;;;14.14;100.00;96018.69;647339;216;42146;-74
2022/06/18 03:49:27;;;;;;;1.30;1.20;;;13.30;1.40;;;14.35;100.00;96017.50;645606;212;42771;-74
2022/06/18 03:52:08;;;;;;;1.50;1.05;;;13.60;1.40;;;14.57;100.00;96015.05;639634;220;31856;-73
2022/06/18 03:54:50;;;;;;;1.00;0.90;;;13.80;1.40;;;14.71;100.00;96017.08;649254;216;31533;-73
2022/06/18 03:57:32;;;;;;;1.20;1.10;;;13.90;1.40;;;14.71;100.00;96017.83;645985;216;42133;-74
2022/06/18 04:00:16;;;;;;;1.20;1.10;;;13.70;1.40;;;14.74;100.00;96017.25;644388;216;42898;-74
2022/06/18 04:03:01;;;;;;;1.20;0.90;;;13.80;1.40;;;14.82;100.00;96018.42;646422;216;42284;-73
2022/06/18 04:05:43;;;;;;;1.85;1.75;;;13.80;1.40;;;14.83;100.00;96012.84;644235;216;31596;-74
2022/06/18 04:08:28;;;;;;;1.60;1.25;;;13.80;1.40;;;14.94;100.00;96010.47;646943;216;31502;-73
2022/06/18 04:11:10;;;;;;;1.30;1.20;;;13.90;1.40;;;15.13;100.00;96008.67;631278;222;31738;-73
2022/06/18 04:13:52;;;;;;;1.80;1.40;;;14.20;1.40;;;15.24;100.00;96005.86;645066;216;31495;-73
2022/06/18 04:16:34;;;;;;;1.17;1.08;;;14.30;1.40;;;15.42;100.00;96003.75;650409;216;31469;-74
2022/06/18 04:19:15;;;;;;;4.32;1.40;;;14.50;1.40;;;15.48;100.00;96002.39;648396;212;31718;-73
2022/06/18 04:21:57;;;;;;;1.30;1.20;;;14.50;1.40;;;15.53;100.00;95998.23;645385;212;31774;-74
2022/06/18 04:24:39;;;;;;;1.40;1.20;;;14.60;1.40;;;15.55;100.00;95998.28;645357;216;31468;-74
2022/06/18 04:27:21;;;;;;;1.08;1.00;;;14.60;1.40;;;15.66;100.00;95997.00;647938;216;31542;-74
2022/06/18 04:30:02;;;;;;;1.25;1.15;;;14.70;1.40;;;15.71;100.00;95995.28;645936;216;31483;-74
2022/06/18 04:32:44;;;;;;;1.20;1.00;;;14.70;1.40;;;15.73;100.00;96000.84;647631;216;31499;-73
2022/06/18 04:35:52;;;;;;;1.50;1.40;;;14.70;1.40;;;15.72;100.00;96001.70;621944;222;31943;-74
2022/06/18 04:38:34;;;;;;;1.50;1.40;;;14.70;1.40;;;15.80;100.00;95995.00;646840;216;32901;-75
2022/06/18 04:41:18;;;;;;;1.10;1.00;;;14.80;1.40;;;15.92;100.00;95994.00;646903;212;31558;-75
2022/06/18 04:44:00;;;;;;;1.98;1.40;;;14.90;1.40;;;16.04;100.00;95993.08;645412;216;31519;-74
2022/06/18 04:46:45;;;;;;;1.60;1.20;;;15.10;1.40;;;16.22;100.00;95994.75;646932;216;32155;-74
2022/06/18 04:49:26;;;;;;;1.50;1.23;;;15.30;1.40;;;16.39;100.00;95992.75;646330;216;42282;-74
2022/06/18 04:52:08;;;;;;;1.65;1.50;;;15.50;1.40;;;16.49;100.00;95992.08;646140;216;31820;-74
2022/06/18 04:54:52;;;;;;;1.10;1.00;;;15.60;1.40;;;16.67;100.00;95989.36;648837;216;31536;-74
2022/06/18 04:57:31;;;;;;;1.33;1.20;;;15.80;1.40;;;16.82;100.00;95990.04;618015;226;31851;-74
2022/06/18 05:00:17;;;;;;;1.40;1.15;;;15.90;1.40;;;16.98;100.00;95990.16;617947;222;31945;-74
2022/06/18 05:02:58;;;;;;;1.50;1.40;;;16.10;1.40;;;17.13;100.00;95988.48;646619;212;32302;-74
2022/06/18 05:05:40;;;;;;;1.42;1.20;;;16.30;1.40;;;17.28;100.00;95993.52;646102;216;31531;-74
2022/06/18 05:08:23;;;;;;;1.57;1.20;;;16.40;1.40;;;17.39;100.00;95994.32;647582;216;31578;-74
2022/06/18 05:11:07;;;;;;;1.42;1.23;;;16.50;1.40;;;17.54;100.00;95994.80;646765;212;31549;-74
2022/06/18 05:13:48;;;;;;;1.45;1.27;;;16.60;1.40;;;17.70;100.00;95994.63;646030;216;31507;-75
2022/06/18 05:16:33;;;;;;;2.22;1.40;;;16.80;1.40;;;17.83;100.00;95998.41;644575;212;32080;-74
2022/06/18 05:19:23;;;;;;;1.50;1.40;;;17.00;1.40;;;18.04;100.00;95998.77;646444;216;31656;-74
2022/06/18 05:22:04;;;;;;;1.20;1.10;;;17.20;1.40;;;18.20;100.00;95995.81;618258;226;32025;-74
2022/06/18 05:24:46;;;;;;;1.37;1.20;;;17.30;1.40;;;18.31;100.00;95998.93;647669;216;42747;-74
2022/06/18 05:27:28;;;;;;;1.20;1.10;;;17.40;1.40;;;18.47;100.00;95998.45;650233;212;31854;-74
2022/06/18 05:30:09;;;;;;;1.40;1.10;;;17.60;1.40;;;18.56;100.00;95999.13;644156;216;31739;-74
2022/06/18 05:32:51;;;;;;;2.50;1.20;;;17.70;1.40;;;18.68;100.00;95998.88;649619;216;42155;-74
2022/06/18 05:35:51;;;;;;;1.02;0.90;;;17.80;1.40;;;18.81;100.00;95996.52;648422;216;31689;-74
2022/06/18 05:38:33;;;;;;;1.92;1.35;;;17.90;1.40;;;18.92;100.00;95994.42;648919;216;31537;-75
2022/06/18 05:41:15;;;;;;;1.70;1.10;;;18.00;1.40;;;19.02;100.00;95996.22;646507;216;31550;-74
2022/06/18 05:43:56;;;;;;;1.27;1.00;;;18.10;1.40;;;19.16;100.00;96000.84;621490;226;31831;-74
2022/06/18 05:46:38;;;;;;;1.75;1.40;;;18.20;1.40;;;19.30;100.00;95997.97;646542;216;31511;-75
2022/06/18 05:49:20;;;;;;;1.20;1.10;;;18.40;1.40;;;19.39;100.00;96000.61;630926;221;31673;-74
2022/06/18 05:52:01;;;;;;;3.12;1.00;;;18.50;1.40;;;19.48;100.00;96005.25;644774;216;31806;-74
2022/06/18 05:54:43;;;;;;;1.75;1.35;;;18.50;1.40;;;19.60;100.00;96005.26;646888;216;31525;-73
2022/06/18 05:57:25;;;;;;;1.00;0.90;;;18.60;1.40;;;19.68;100.00;95999.16;648256;216;31539;-73
2022/06/18 06:00:07;;;;;;;1.77;1.37;;;18.70;1.40;;;19.81;100.00;96005.40;617917;226;32095;-73
2022/06/18 06:02:49;;;;;;;2.20;1.50;;;18.90;1.40;;;19.94;100.00;96002.02;645504;216;31516;-73
2022/06/18 06:05:32;;;;;;;1.35;1.25;;;19.00;1.40;;;20.05;100.00;96002.06;647848;216;32101;-73
2022/06/18 06:08:16;;;;;;;1.30;1.10;;;19.10;1.40;;;20.20;100.00;96002.27;647854;212;31569;-73
2022/06/18 06:13:44;;;;;;;1.30;1.20;;;19.40;1.40;;;20.48;100.00;95997.09;647697;216;31744;-73
2022/06/18 06:16:26;;;;;;;2.28;1.42;;;19.50;1.40;;;20.61;100.00;95998.73;645843;216;31707;-73
2022/06/18 06:19:08;;;;;;;1.90;1.40;;;19.60;1.40;;;20.66;100.00;95998.52;644725;214;42411;-73
2022/06/18 06:21:49;;;;;;;2.50;1.23;;;19.70;1.40;;;20.78;100.00;96000.77;647402;216;31797;-73
2022/06/18 06:24:31;;;;;;;1.20;1.10;;;19.80;1.40;;;20.95;100.00;95996.92;647351;216;31649;-74
2022/06/18 06:27:13;;;;;;;1.65;1.20;;;20.00;1.40;;;21.04;100.00;96000.75;646587;216;31773;-73
2022/06/18 06:29:54;;;;;;;1.70;1.30;;;20.10;1.40;;;21.17;100.00;96001.58;646049;212;31529;-72
2022/06/18 06:32:36;;;;;;;1.37;1.27;;;20.30;1.40;;;21.41;100.00;96000.23;645496;216;31496;-73
2022/06/18 06:35:51;;;;;;;1.90;1.47;;;20.50;1.40;;;21.51;100.00;95995.53;646870;216;31552;-73
2022/06/18 06:38:32;;;;;;;1.67;1.20;;;20.60;1.40;;;21.67;98.87;95993.29;647438;212;31535;-73
2022/06/18 06:41:17;;;;;;;1.30;1.20;;;20.70;1.40;;;21.69;94.51;95995.52;648796;216;31588;-74
2022/06/18 06:43:59;;;;;;;1.60;1.17;;;20.70;1.40;;;21.80;97.53;95993.61;647388;212;31523;-73
2022/06/18 06:46:40;;;;;;;3.03;1.23;;;20.80;1.40;;;21.96;95.75;95991.39;647925;216;31475;-73
2022/06/18 06:49:22;;;;;;;1.60;1.50;;;21.00;1.40;;;22.08;94.62;95994.06;647576;216;31620;-73
2022/06/18 06:52:04;;;;;;;1.23;1.12;;;21.10;1.40;;;22.14;92.22;95989.67;643034;212;32279;-75
2022/06/18 06:57:20;;;;;;;1.20;1.10;;;21.10;1.40;;;22.24;92.38;95987.05;646237;213;42169;-73
2022/06/18 06:57:27;;;;;;;1.58;1.40;;;21.20;1.40;;;22.46;93.80;95987.70;645634;212;31532;-73
2022/06/18 07:00:10;;;;;;;2.70;1.25;;;21.50;1.40;;;22.55;94.44;95984.48;647697;216;31715;-73
2022/06/18 07:02:52;;;;;;;1.40;1.30;;;21.60;1.40;;;22.66;94.06;95978.32;646643;216;31574;-73
2022/06/18 07:05:36;;;;;;;1.70;1.50;;;21.60;1.40;;;22.61;95.83;95981.55;646121;216;31595;-74
2022/06/18 07:08:18;;;;;;;2.23;1.17;;;21.10;1.40;;;21.54;100.00;95976.86;649934;216;31658;-74
2022/06/18 07:11:03;;;;;;;1.27;1.15;;;20.60;1.40;;;20.88;100.00;95981.20;647097;216;31777;-73
2022/06/18 07:13:44;;;;;;;1.20;1.10;;;19.20;1.40;;;20.63;100.00;95975.05;620019;222;31871;-74
2022/06/18 07:16:27;;;;;;;1.50;1.25;;;19.90;1.40;;;20.41;100.00;95977.55;648051;216;31541;-75
2022/06/18 07:19:09;;;;;;;2.03;1.10;;;19.70;1.40;;;20.57;100.00;95976.78;644757;216;31491;-74
2022/06/18 07:21:51;;;;;;;1.10;1.00;;;20.30;1.40;;;20.58;100.00;95967.81;618498;226;32155;-73
2022/06/18 07:24:38;;;;;;;1.80;1.10;;;20.60;1.40;;;20.72;100.00;95970.41;647128;216;42162;-72
2022/06/18 07:27:20;;;;;;;1.60;1.33;;;21.20;1.40;;;21.16;100.00;95964.96;646604;216;42141;-71
2022/06/18 07:30:02;;;;;;;1.70;1.20;;;21.90;1.40;;;21.32;100.00;95960.08;647919;216;42148;-72
2022/06/18 07:32:44;;;;;;;1.30;1.05;;;21.90;1.40;;;21.37;100.00;95951.16;647366;216;42149;-71
2022/06/18 07:35:51;;;;;;;1.53;1.40;;;22.00;1.40;;;21.55;100.00;95942.99;649475;216;31572;-72
2022/06/18 07:38:32;;;;;;;1.40;1.00;;;22.20;1.40;;;21.97;100.00;95938.03;647057;212;31544;-71
2022/06/18 07:41:15;;;;;;;2.60;1.00;;;22.60;1.40;;;22.50;94.72;95937.96;647505;212;31525;-72
2022/06/18 07:43:57;;;;;;;1.20;1.10;;;22.80;1.40;;;22.86;94.30;95934.51;619327;226;32069;-71
2022/06/18 07:46:38;;;;;;;3.00;1.20;;;22.90;1.40;;;23.24;89.60;95940.18;648485;212;36543;-72
2022/06/18 07:49:20;;;;;;;1.23;0.90;;;23.10;1.40;;;23.44;86.60;95934.78;647722;216;31525;-71
2022/06/18 07:52:01;;;;;;;3.00;1.20;;;23.20;1.40;;;23.76;87.20;95935.11;645177;216;32018;-72
2022/06/18 07:54:43;;;;;;;1.40;1.30;;;23.30;1.40;;;24.01;83.22;95934.81;643679;216;31581;-72
2022/06/18 07:57:28;;;;;;;1.45;1.05;;;23.40;1.40;;;24.21;83.01;95928.58;619542;226;31861;-73
2022/06/18 08:00:10;;;;;;;1.40;1.10;;;23.50;1.40;;;24.61;80.07;95932.09;647486;216;31549;-72
2022/06/18 08:02:52;;;;;;;1.70;1.00;;;23.90;1.40;;;24.76;77.28;95927.75;646881;212;31523;-71
2022/06/18 08:05:37;;;;;;;1.67;1.20;;;23.90;1.40;;;24.96;76.48;95925.17;646396;212;42759;-71
2022/06/18 08:08:20;;;;;;;1.62;1.30;;;24.10;1.40;;;25.13;77.32;95926.47;647462;216;40162;-71
2022/06/18 08:11:02;;;;;;;1.42;1.20;;;24.20;1.40;;;25.36;75.27;95923.09;619424;222;31971;-72
2022/06/18 08:13:43;;;;;;;1.30;1.20;;;24.50;1.40;;;25.46;73.66;95926.31;646453;216;31630;-72
2022/06/18 08:16:25;;;;;;;1.37;1.27;;;24.50;1.40;;;25.53;70.25;95918.73;647442;212;31503;-71
2022/06/18 08:19:07;;;;;;;1.20;1.00;;;24.40;1.40;;;25.59;73.30;95915.81;646485;216;31520;-72
2022/06/18 08:21:48;;;;;;;1.30;1.20;;;24.50;1.40;;;25.84;70.51;95915.20;646530;216;31669;-72
2022/06/18 08:24:30;;;;;;;1.27;1.10;;;24.60;1.40;;;25.96;73.06;95916.06;646623;216;31505;-72
2022/06/18 08:27:14;;;;;;;1.48;1.25;;;24.70;1.40;;;26.08;66.63;95909.83;649068;216;31546;-73
2022/06/18 08:29:56;;;;;;;2.10;1.30;;;24.90;1.40;;;26.09;63.50;95904.56;646483;216;31555;-73
2022/06/18 08:32:38;;;;;;;1.10;1.00;;;24.90;1.40;;;26.39;65.66;95907.11;645617;216;31584;-73
2022/06/18 08:35:51;;;;;;;2.87;1.20;;;25.30;1.40;;;26.50;64.79;95902.77;648697;216;31573;-72
2022/06/18 08:38:33;;;;;;;1.35;1.25;;;25.40;1.40;;;26.51;62.31;95903.86;647602;216;31542;-72
2022/06/18 08:41:37;;;;;;;1.50;1.40;;;25.30;1.40;;;26.73;62.05;95900.70;623418;222;32029;-73
2022/06/18 08:44:44;;;;;;;1.20;0.90;;;25.50;1.40;;;26.94;59.72;95900.20;648496;216;31669;-73
2022/06/18 08:47:51;;;;;;;1.40;1.30;;;25.70;1.40;;;27.02;59.23;95897.81;647138;212;31916;-73
2022/06/18 08:50:43;;;;;;;1.50;1.10;;;25.90;1.40;;;27.28;55.24;95895.86;644804;216;31567;-72
2022/06/18 08:54:01;;;;;;;1.20;1.10;;;25.90;1.40;;;27.44;57.80;95892.87;637314;216;31730;-73
2022/06/18 08:56:45;;;;;;;1.00;1.00;;;26.20;1.40;;;27.71;56.34;95886.44;647040;212;31632;-73
2022/06/18 08:59:45;;;;;;;1.20;1.10;;;26.50;1.40;;;27.94;51.68;95887.33;641699;216;31540;-72
2022/06/18 09:02:32;;;;;;;0.80;0.80;;;26.70;1.40;;;28.03;53.33;95890.41;619057;226;31868;-73
2022/06/18 09:05:45;;;;;;;2.17;0.90;;;26.90;1.40;;;28.15;51.24;95891.14;651102;216;31481;-73
2022/06/18 09:08:38;;;;;;;3.40;1.12;;;26.90;1.40;;;28.50;47.99;95888.18;648850;212;31509;-74
2022/06/18 09:11:46;;;;;;;1.33;1.10;;;27.30;1.40;;;28.76;51.14;95884.45;647557;216;31587;-77
2022/06/18 09:14:39;;;;;;;1.12;1.02;;;27.50;1.40;;;28.79;50.26;95880.26;645534;212;31497;-75
2022/06/18 09:17:47;;;;;;;2.10;1.17;;;27.30;1.40;;;28.82;50.24;95881.53;647596;216;42138;-74
2022/06/18 09:20:33;;;;;;;0.80;0.80;;;27.30;1.40;;;29.42;48.42;95874.39;648058;216;31733;-74
2022/06/18 09:23:34;;;;;;;0.90;0.90;;;27.90;1.40;;;30.10;48.69;95874.60;644837;216;31521;-75
2022/06/18 09:26:17;;;;;;;1.73;1.08;;;28.50;1.40;;;29.94;50.20;95872.17;647646;212;32051;-75
2022/06/18 09:29:01;;;;;;;2.90;1.37;;;28.80;1.40;;;31.16;45.38;95875.37;646853;216;31502;-75
2022/06/18 09:31:44;;;;;;;1.50;1.10;;;31.70;1.40;;;32.08;43.20;95871.87;630671;221;42701;-75
2022/06/18 09:36:01;;;;;;;1.20;1.10;;;33.10;1.40;;;33.38;42.53;95870.84;648410;216;31593;-77
2022/06/18 09:38:49;;;;;;;1.10;1.00;;;34.30;1.40;;;35.32;43.51;95864.61;646014;216;31627;-74
2022/06/18 09:41:38;;;;;;;1.90;1.30;;;35.50;1.40;;;35.18;41.43;95864.42;646864;216;31591;-75
2022/06/18 09:45:01;;;;;;;1.40;1.30;;;34.40;1.40;;;36.72;42.99;95858.14;620069;226;32028;-76
2022/06/18 09:47:44;;;;;;;1.05;1.00;;;34.90;1.40;;;36.67;37.95;95858.62;647394;212;31575;-74
2022/06/18 09:50:33;;;;;;;1.35;1.25;;;34.40;1.40;;;36.33;38.88;95857.27;619343;226;32199;-74
2022/06/18 09:53:37;;;;;;;1.27;1.17;;;34.90;1.40;;;35.24;34.95;95860.02;639050;212;31692;-76
2022/06/18 09:56:23;;;;;;;1.40;1.30;;;31.70;1.40;;;34.14;35.55;95862.66;645460;216;31576;-74
2022/06/18 09:59:05;;;;;;;1.40;1.30;;;31.80;1.40;;;34.72;35.92;95855.50;631628;222;32597;-77
2022/06/18 10:01:47;;;;;;;0.90;0.90;;;34.10;1.40;;;34.39;34.44;95862.66;647961;212;31807;-77
2022/06/18 10:07:23;;;;;;;1.30;1.20;;;33.60;1.40;;;36.23;34.26;95853.55;647992;212;31765;-75
2022/06/18 10:10:15;;;;;;;1.60;1.40;;;33.70;1.40;;;36.52;34.24;95851.61;641006;216;31615;-78
2022/06/18 10:12:58;;;;;;;1.40;1.30;;;33.00;1.40;;;37.84;34.79;95842.64;619542;226;31956;-74
2022/06/18 10:15:42;;;;;;;1.25;1.15;;;35.10;1.40;;;39.16;31.71;95837.42;649149;216;31620;-76
2022/06/18 10:18:32;;;;;;;1.30;1.20;;;35.90;1.40;;;40.59;30.72;95827.88;646345;216;31565;-75
2022/06/18 10:21:19;;;;;;;1.30;1.20;;;36.00;1.40;;;36.76;31.78;95840.06;645815;216;31712;-76
2022/06/18 10:26:48;;;;;;;1.17;1.08;;;33.10;1.40;;;35.92;31.80;95836.56;622143;222;33064;-79
2022/06/18 10:29:51;;;;;;;2.20;1.20;;;32.30;1.40;;;37.12;30.75;95825.89;645652;216;32010;-74
2022/06/18 10:35:58;;;;;;;1.50;1.12;;;32.80;1.40;;;39.16;33.84;95816.50;645775;216;31654;-75
2022/06/18 10:38:44;;;;;;;1.40;1.30;;;35.10;1.40;;;40.03;33.25;95809.98;646809;212;31555;-75
2022/06/18 10:41:54;;;;;;;1.47;1.10;;;36.20;1.40;;;39.03;31.57;95816.79;644768;216;31519;-77
2022/06/18 10:44:51;;;;;;;1.70;1.23;;;35.40;1.40;;;40.10;31.67;95811.52;648455;212;42101;-78
2022/06/18 10:47:38;;;;;;;1.20;1.10;;;35.20;1.40;;;39.30;30.12;95813.91;644631;212;31583;-76
2022/06/18 10:50:26;;;;;;;1.03;1.03;;;34.70;1.40;;;37.98;30.39;95817.18;646992;216;31521;-77
2022/06/18 10:53:11;;;;;;;1.60;1.30;;;34.50;1.40;;;38.84;30.21;95815.23;645671;216;31530;-75
2022/06/18 10:56:02;;;;;;;1.40;1.10;;;34.60;1.40;;;40.06;28.31;95808.91;646994;216;31520;-75
2022/06/18 10:58:48;;;;;;;2.97;1.45;;;34.60;1.40;;;40.21;27.64;95808.83;620633;222;31889;-76
2022/06/18 11:01:38;;;;;;;1.50;1.20;;;34.20;1.40;;;39.89;29.84;95803.23;646783;216;31495;-78
2022/06/18 11:04:25;;;;;;;1.50;1.17;;;35.40;1.40;;;40.34;27.94;95803.88;620996;225;42726;-75
2022/06/18 11:07:13;;;;;;;1.23;1.20;;;35.70;1.40;;;40.02;28.15;95797.77;646664;216;32079;-78
2022/06/18 11:10:01;;;;;;;1.30;1.20;;;35.90;1.40;;;42.10;28.17;95795.61;644359;216;31617;-75
2022/06/18 11:15:25;;;;;;;1.65;1.37;;;35.10;1.40;;;40.54;27.04;95795.23;642898;216;31640;-77
2022/06/18 11:18:18;;;;;;;1.50;1.10;;;34.60;1.40;;;41.66;26.95;95792.48;648567;216;31614;-75
2022/06/18 11:21:00;;;;;;;1.10;1.10;;;34.60;1.40;;;39.71;27.26;95795.87;644882;212;31566;-76
2022/06/18 11:23:41;;;;;;;1.17;1.07;;;33.90;1.40;;;39.95;28.35;95784.69;645467;212;31513;-75
2022/06/18 11:26:23;;;;;;;1.20;1.10;;;34.80;1.40;;;38.93;27.53;95783.17;649704;216;31523;-75
2022/06/18 11:29:14;;;;;;;1.20;1.10;;;34.00;1.40;;;39.17;30.37;95783.60;652449;212;31522;-77
2022/06/18 11:31:56;;;;;;;1.33;1.23;;;33.80;1.40;;;39.17;27.43;95788.38;624508;222;31913;-77
2022/06/18 11:35:57;;;;;;;1.30;1.20;;;33.20;1.40;;;41.11;27.40;95778.33;644994;212;42203;-77
2022/06/18 11:38:52;;;;;;;1.10;1.00;;;34.60;1.40;;;41.20;26.94;95780.44;646788;216;31498;-75
2022/06/18 11:41:38;;;;;;;1.57;1.30;;;35.10;1.40;;;43.47;26.00;95777.59;619199;226;31826;-76
2022/06/18 11:44:22;;;;;;;2.90;1.90;;;36.00;1.40;;;43.05;25.69;95776.47;646096;216;31621;-75
2022/06/18 11:47:16;;;;;;;2.58;1.33;;;35.90;1.40;;;40.31;26.68;95775.43;646967;212;31646;-75
2022/06/18 11:50:12;;;;;;;1.40;1.30;;;33.70;1.40;;;38.65;27.26;95777.48;634018;222;31705;-77
2022/06/18 11:52:57;;;;;;;1.27;1.10;;;33.10;1.40;;;38.79;27.02;95775.59;643898;216;31785;-78
2022/06/18 11:55:44;;;;;;;1.43;1.07;;;33.40;1.40;;;38.89;26.96;95772.81;646155;212;31506;-75
2022/06/18 11:58:33;;;;;;;1.20;1.10;;;34.10;1.40;;;37.93;27.22;95773.63;648236;216;31587;-75
2022/06/18 12:01:35;;;;;;;1.20;1.10;;;33.70;1.40;;;38.18;26.10;95766.28;648629;212;42113;-77
2022/06/18 12:04:28;;;;;;;5.50;1.40;;;33.40;1.40;;;39.47;26.00;95755.50;644964;216;31549;-76
2022/06/18 12:07:29;;;;;;;1.17;0.90;;;33.90;1.40;;;38.84;26.79;95754.10;647079;212;31477;-75
2022/06/18 12:10:14;;;;;;;1.30;1.20;;;33.30;1.40;;;39.66;26.45;95753.47;651377;216;31527;-75